sensor_id;sensor_type;location;lat;lon;timestamp;P1;durP1;ratioP1;P2;durP2;ratioP2
72974;SDS011;61166;54.228;37.632;2023-08-01T00:00:02;19.30;;;13.95;;
72974;SDS011;61166;54.228;37.632;2023-08-01T00:02:29;21.38;;;14.00;;
72974;SDS011;61166;54.228;37.632;2023-08-01T00:04:56;19.53;;;11.60;;
72974;SDS011;61166;54.228;37.632;2023-08-01T00:07:22;15.13;;;8.27;;
72974;SDS011;61166;54.228;37.632;2023-08-01T00:09:48;32.55;;;23.20;;
72974;SDS011;61166;54.228;37.632;2023-08-01T00:12:15;18.90;;;11.57;;
72974;SDS011;61166;54.228;37.632;2023-08-01T00:14:41;20.15;;;13.63;;
72974;SDS011;61166;54.228;37.632;2023-08-01T00:17:08;27.63;;;21.73;;
72974;SDS011;61166;54.228;37.632;2023-08-01T00:19:34;28.13;;;21.00;;
72974;SDS011;61166;54.228;37.632;2023-08-01T00:22:01;22.92;;;14.95;;
72974;SDS011;61166;54.228;37.632;2023-08-01T00:24:27;25.90;;;16.55;;
72974;SDS011;61166;54.228;37.632;2023-08-01T00:26:53;24.98;;;13.98;;
72974;SDS011;61166;54.228;37.632;2023-08-01T00:29:20;18.90;;;10.23;;
72974;SDS011;61166;54.228;37.632;2023-08-01T00:31:46;23.10;;;15.80;;
72974;SDS011;61166;54.228;37.632;2023-08-01T00:34:13;27.20;;;21.35;;
72974;SDS011;61166;54.228;37.632;2023-08-01T00:36:39;24.70;;;19.10;;
72974;SDS011;61166;54.228;37.632;2023-08-01T00:39:06;24.42;;;16.52;;
72974;SDS011;61166;54.228;37.632;2023-08-01T00:41:33;20.27;;;14.53;;
72974;SDS011;61166;54.228;37.632;2023-08-01T00:43:59;17.42;;;8.93;;
72974;SDS011;61166;54.228;37.632;2023-08-01T00:46:26;12.38;;;7.90;;
72974;SDS011;61166;54.228;37.632;2023-08-01T00:48:52;26.30;;;21.35;;
72974;SDS011;61166;54.228;37.632;2023-08-01T00:51:19;15.43;;;9.13;;
72974;SDS011;61166;54.228;37.632;2023-08-01T00:53:45;21.60;;;14.43;;
72974;SDS011;61166;54.228;37.632;2023-08-01T00:56:12;13.63;;;8.48;;
72974;SDS011;61166;54.228;37.632;2023-08-01T00:58:38;20.95;;;14.90;;
72974;SDS011;61166;54.228;37.632;2023-08-01T01:01:05;20.17;;;17.33;;
72974;SDS011;61166;54.228;37.632;2023-08-01T01:03:31;15.55;;;9.07;;
72974;SDS011;61166;54.228;37.632;2023-08-01T01:06:02;22.07;;;12.37;;
72974;SDS011;61166;54.228;37.632;2023-08-01T01:08:32;20.00;;;12.05;;
72974;SDS011;61166;54.228;37.632;2023-08-01T01:10:59;21.85;;;13.82;;
72974;SDS011;61166;54.228;37.632;2023-08-01T01:13:25;25.33;;;13.45;;
72974;SDS011;61166;54.228;37.632;2023-08-01T01:15:51;16.90;;;9.00;;
72974;SDS011;61166;54.228;37.632;2023-08-01T01:18:18;21.10;;;13.27;;
72974;SDS011;61166;54.228;37.632;2023-08-01T01:20:45;19.98;;;14.27;;
72974;SDS011;61166;54.228;37.632;2023-08-01T01:23:11;18.38;;;11.38;;
72974;SDS011;61166;54.228;37.632;2023-08-01T01:25:38;20.15;;;10.20;;
72974;SDS011;61166;54.228;37.632;2023-08-01T01:28:05;15.00;;;8.27;;
72974;SDS011;61166;54.228;37.632;2023-08-01T01:30:32;20.23;;;11.23;;
72974;SDS011;61166;54.228;37.632;2023-08-01T01:33:00;15.63;;;8.85;;
72974;SDS011;61166;54.228;37.632;2023-08-01T01:35:27;16.38;;;9.88;;
72974;SDS011;61166;54.228;37.632;2023-08-01T01:37:53;21.80;;;13.50;;
72974;SDS011;61166;54.228;37.632;2023-08-01T01:40:19;18.02;;;8.93;;
72974;SDS011;61166;54.228;37.632;2023-08-01T01:42:46;18.17;;;10.10;;
72974;SDS011;61166;54.228;37.632;2023-08-01T01:45:13;14.70;;;6.72;;
72974;SDS011;61166;54.228;37.632;2023-08-01T01:47:39;15.63;;;9.18;;
72974;SDS011;61166;54.228;37.632;2023-08-01T01:50:06;19.35;;;10.07;;
72974;SDS011;61166;54.228;37.632;2023-08-01T01:52:32;16.58;;;8.82;;
72974;SDS011;61166;54.228;37.632;2023-08-01T01:54:59;18.77;;;9.83;;
72974;SDS011;61166;54.228;37.632;2023-08-01T01:57:25;24.70;;;9.98;;
72974;SDS011;61166;54.228;37.632;2023-08-01T01:59:52;21.27;;;11.32;;
72974;SDS011;61166;54.228;37.632;2023-08-01T02:02:18;19.88;;;9.90;;
72974;SDS011;61166;54.228;37.632;2023-08-01T02:04:49;15.65;;;8.82;;
72974;SDS011;61166;54.228;37.632;2023-08-01T02:07:16;17.83;;;9.37;;
72974;SDS011;61166;54.228;37.632;2023-08-01T02:09:43;20.13;;;8.55;;
72974;SDS011;61166;54.228;37.632;2023-08-01T02:12:09;14.82;;;8.52;;
72974;SDS011;61166;54.228;37.632;2023-08-01T02:14:36;20.55;;;8.60;;
72974;SDS011;61166;54.228;37.632;2023-08-01T02:17:02;14.70;;;8.82;;
72974;SDS011;61166;54.228;37.632;2023-08-01T02:19:28;16.20;;;8.80;;
72974;SDS011;61166;54.228;37.632;2023-08-01T02:21:55;17.83;;;8.25;;
72974;SDS011;61166;54.228;37.632;2023-08-01T02:24:21;17.33;;;9.20;;
72974;SDS011;61166;54.228;37.632;2023-08-01T02:26:48;13.40;;;8.05;;
72974;SDS011;61166;54.228;37.632;2023-08-01T02:29:15;15.20;;;9.30;;
72974;SDS011;61166;54.228;37.632;2023-08-01T02:31:41;19.23;;;11.30;;
72974;SDS011;61166;54.228;37.632;2023-08-01T02:34:08;19.70;;;10.00;;
72974;SDS011;61166;54.228;37.632;2023-08-01T02:36:34;19.35;;;9.50;;
72974;SDS011;61166;54.228;37.632;2023-08-01T02:39:02;19.15;;;9.55;;
72974;SDS011;61166;54.228;37.632;2023-08-01T02:41:28;17.67;;;9.50;;
72974;SDS011;61166;54.228;37.632;2023-08-01T02:43:55;18.40;;;11.20;;
72974;SDS011;61166;54.228;37.632;2023-08-01T02:46:21;17.05;;;9.65;;
72974;SDS011;61166;54.228;37.632;2023-08-01T02:48:48;15.40;;;7.50;;
72974;SDS011;61166;54.228;37.632;2023-08-01T02:51:14;14.27;;;8.18;;
72974;SDS011;61166;54.228;37.632;2023-08-01T02:53:41;16.60;;;7.65;;
72974;SDS011;61166;54.228;37.632;2023-08-01T02:56:07;17.37;;;8.90;;
72974;SDS011;61166;54.228;37.632;2023-08-01T02:58:34;15.48;;;8.13;;
72974;SDS011;61166;54.228;37.632;2023-08-01T03:01:00;15.10;;;8.15;;
72974;SDS011;61166;54.228;37.632;2023-08-01T03:03:27;15.50;;;8.60;;
72974;SDS011;61166;54.228;37.632;2023-08-01T03:05:53;14.20;;;8.00;;
72974;SDS011;61166;54.228;37.632;2023-08-01T03:08:20;12.83;;;8.07;;
72974;SDS011;61166;54.228;37.632;2023-08-01T03:10:46;15.30;;;8.70;;
72974;SDS011;61166;54.228;37.632;2023-08-01T03:13:13;15.80;;;8.15;;
72974;SDS011;61166;54.228;37.632;2023-08-01T03:15:39;15.15;;;8.15;;
72974;SDS011;61166;54.228;37.632;2023-08-01T03:18:06;18.50;;;10.27;;
72974;SDS011;61166;54.228;37.632;2023-08-01T03:20:32;15.10;;;8.80;;
72974;SDS011;61166;54.228;37.632;2023-08-01T03:22:59;14.23;;;8.35;;
72974;SDS011;61166;54.228;37.632;2023-08-01T03:25:25;12.85;;;8.85;;
72974;SDS011;61166;54.228;37.632;2023-08-01T03:27:51;12.00;;;8.77;;
72974;SDS011;61166;54.228;37.632;2023-08-01T03:30:18;16.40;;;9.55;;
72974;SDS011;61166;54.228;37.632;2023-08-01T03:32:44;14.17;;;9.53;;
72974;SDS011;61166;54.228;37.632;2023-08-01T03:35:11;16.23;;;9.20;;
72974;SDS011;61166;54.228;37.632;2023-08-01T03:37:37;16.00;;;10.77;;
72974;SDS011;61166;54.228;37.632;2023-08-01T03:40:04;19.40;;;9.73;;
72974;SDS011;61166;54.228;37.632;2023-08-01T03:42:31;15.52;;;10.35;;
72974;SDS011;61166;54.228;37.632;2023-08-01T03:44:57;16.07;;;11.13;;
72974;SDS011;61166;54.228;37.632;2023-08-01T03:47:24;15.13;;;9.82;;
72974;SDS011;61166;54.228;37.632;2023-08-01T03:49:50;19.95;;;12.15;;
72974;SDS011;61166;54.228;37.632;2023-08-01T03:52:16;18.88;;;11.80;;
72974;SDS011;61166;54.228;37.632;2023-08-01T03:54:43;15.00;;;10.98;;
72974;SDS011;61166;54.228;37.632;2023-08-01T03:57:09;18.97;;;10.07;;
72974;SDS011;61166;54.228;37.632;2023-08-01T03:59:36;16.77;;;10.13;;
72974;SDS011;61166;54.228;37.632;2023-08-01T04:02:02;16.25;;;9.10;;
72974;SDS011;61166;54.228;37.632;2023-08-01T04:04:29;16.52;;;8.85;;
72974;SDS011;61166;54.228;37.632;2023-08-01T04:06:55;13.52;;;9.52;;
72974;SDS011;61166;54.228;37.632;2023-08-01T04:09:22;12.83;;;8.67;;
72974;SDS011;61166;54.228;37.632;2023-08-01T04:11:48;14.95;;;8.48;;
72974;SDS011;61166;54.228;37.632;2023-08-01T04:14:14;14.57;;;9.95;;
72974;SDS011;61166;54.228;37.632;2023-08-01T04:16:41;14.93;;;9.48;;
72974;SDS011;61166;54.228;37.632;2023-08-01T04:19:08;16.98;;;8.65;;
72974;SDS011;61166;54.228;37.632;2023-08-01T04:21:34;12.43;;;8.43;;
72974;SDS011;61166;54.228;37.632;2023-08-01T04:24:01;14.20;;;9.88;;
72974;SDS011;61166;54.228;37.632;2023-08-01T04:26:27;15.73;;;10.65;;
72974;SDS011;61166;54.228;37.632;2023-08-01T04:28:53;12.50;;;8.05;;
72974;SDS011;61166;54.228;37.632;2023-08-01T04:31:20;12.80;;;8.77;;
72974;SDS011;61166;54.228;37.632;2023-08-01T04:33:46;16.70;;;9.00;;
72974;SDS011;61166;54.228;37.632;2023-08-01T04:36:13;14.85;;;9.55;;
72974;SDS011;61166;54.228;37.632;2023-08-01T04:38:39;14.13;;;10.60;;
72974;SDS011;61166;54.228;37.632;2023-08-01T04:41:06;17.75;;;12.82;;
72974;SDS011;61166;54.228;37.632;2023-08-01T04:43:32;15.73;;;11.40;;
72974;SDS011;61166;54.228;37.632;2023-08-01T04:45:59;16.63;;;8.97;;
72974;SDS011;61166;54.228;37.632;2023-08-01T04:48:25;19.38;;;9.23;;
72974;SDS011;61166;54.228;37.632;2023-08-01T04:50:51;16.20;;;8.88;;
72974;SDS011;61166;54.228;37.632;2023-08-01T04:53:18;13.98;;;8.10;;
72974;SDS011;61166;54.228;37.632;2023-08-01T04:55:44;14.68;;;8.40;;
72974;SDS011;61166;54.228;37.632;2023-08-01T04:58:11;15.30;;;11.40;;
72974;SDS011;61166;54.228;37.632;2023-08-01T05:00:38;13.80;;;9.68;;
72974;SDS011;61166;54.228;37.632;2023-08-01T05:03:06;14.90;;;8.32;;
72974;SDS011;61166;54.228;37.632;2023-08-01T05:05:33;14.02;;;9.15;;
72974;SDS011;61166;54.228;37.632;2023-08-01T05:07:59;13.27;;;8.43;;
72974;SDS011;61166;54.228;37.632;2023-08-01T05:10:26;22.03;;;8.57;;
72974;SDS011;61166;54.228;37.632;2023-08-01T05:12:52;13.15;;;8.60;;
72974;SDS011;61166;54.228;37.632;2023-08-01T05:15:19;17.65;;;9.77;;
72974;SDS011;61166;54.228;37.632;2023-08-01T05:17:45;15.43;;;8.93;;
72974;SDS011;61166;54.228;37.632;2023-08-01T05:20:12;19.20;;;8.75;;
72974;SDS011;61166;54.228;37.632;2023-08-01T05:22:38;16.17;;;9.50;;
72974;SDS011;61166;54.228;37.632;2023-08-01T05:25:05;15.07;;;8.80;;
72974;SDS011;61166;54.228;37.632;2023-08-01T05:27:31;17.73;;;9.20;;
72974;SDS011;61166;54.228;37.632;2023-08-01T05:29:58;16.05;;;7.78;;
72974;SDS011;61166;54.228;37.632;2023-08-01T05:32:24;17.27;;;7.85;;
72974;SDS011;61166;54.228;37.632;2023-08-01T05:34:51;14.13;;;8.63;;
72974;SDS011;61166;54.228;37.632;2023-08-01T05:37:17;13.90;;;8.23;;
72974;SDS011;61166;54.228;37.632;2023-08-01T05:39:45;13.52;;;8.55;;
72974;SDS011;61166;54.228;37.632;2023-08-01T05:42:11;13.63;;;8.05;;
72974;SDS011;61166;54.228;37.632;2023-08-01T05:44:38;12.98;;;7.85;;
72974;SDS011;61166;54.228;37.632;2023-08-01T05:47:04;11.83;;;8.27;;
72974;SDS011;61166;54.228;37.632;2023-08-01T05:49:31;14.23;;;7.80;;
72974;SDS011;61166;54.228;37.632;2023-08-01T05:51:57;12.93;;;8.27;;
72974;SDS011;61166;54.228;37.632;2023-08-01T05:54:23;13.40;;;8.02;;
72974;SDS011;61166;54.228;37.632;2023-08-01T05:56:50;12.10;;;8.60;;
72974;SDS011;61166;54.228;37.632;2023-08-01T05:59:16;13.03;;;8.90;;
72974;SDS011;61166;54.228;37.632;2023-08-01T06:01:43;14.82;;;9.85;;
72974;SDS011;61166;54.228;37.632;2023-08-01T06:04:10;12.52;;;8.77;;
72974;SDS011;61166;54.228;37.632;2023-08-01T06:06:36;14.65;;;9.45;;
72974;SDS011;61166;54.228;37.632;2023-08-01T06:09:02;18.20;;;10.50;;
72974;SDS011;61166;54.228;37.632;2023-08-01T06:11:29;18.07;;;9.93;;
72974;SDS011;61166;54.228;37.632;2023-08-01T06:13:56;17.92;;;10.02;;
72974;SDS011;61166;54.228;37.632;2023-08-01T06:16:22;16.33;;;10.02;;
72974;SDS011;61166;54.228;37.632;2023-08-01T06:18:53;14.02;;;9.77;;
72974;SDS011;61166;54.228;37.632;2023-08-01T06:21:19;18.10;;;9.68;;
72974;SDS011;61166;54.228;37.632;2023-08-01T06:23:45;15.37;;;10.20;;
72974;SDS011;61166;54.228;37.632;2023-08-01T06:26:12;18.33;;;10.38;;
72974;SDS011;61166;54.228;37.632;2023-08-01T06:28:38;17.17;;;11.10;;
72974;SDS011;61166;54.228;37.632;2023-08-01T06:31:05;17.70;;;10.43;;
72974;SDS011;61166;54.228;37.632;2023-08-01T06:33:31;14.10;;;8.98;;
72974;SDS011;61166;54.228;37.632;2023-08-01T06:35:58;16.63;;;10.10;;
72974;SDS011;61166;54.228;37.632;2023-08-01T06:38:24;15.45;;;9.68;;
72974;SDS011;61166;54.228;37.632;2023-08-01T06:40:51;21.33;;;10.65;;
72974;SDS011;61166;54.228;37.632;2023-08-01T06:43:17;16.83;;;10.05;;
72974;SDS011;61166;54.228;37.632;2023-08-01T06:45:46;20.48;;;10.27;;
72974;SDS011;61166;54.228;37.632;2023-08-01T06:48:13;15.40;;;9.57;;
72974;SDS011;61166;54.228;37.632;2023-08-01T06:50:39;19.30;;;10.93;;
72974;SDS011;61166;54.228;37.632;2023-08-01T06:53:05;22.17;;;11.80;;
72974;SDS011;61166;54.228;37.632;2023-08-01T06:55:32;19.50;;;12.00;;
72974;SDS011;61166;54.228;37.632;2023-08-01T06:57:58;18.00;;;10.93;;
72974;SDS011;61166;54.228;37.632;2023-08-01T07:00:25;22.90;;;11.50;;
72974;SDS011;61166;54.228;37.632;2023-08-01T07:02:51;20.42;;;11.43;;
72974;SDS011;61166;54.228;37.632;2023-08-01T07:05:18;19.48;;;12.25;;
72974;SDS011;61166;54.228;37.632;2023-08-01T07:07:45;18.80;;;10.60;;
72974;SDS011;61166;54.228;37.632;2023-08-01T07:10:13;16.20;;;10.40;;
72974;SDS011;61166;54.228;37.632;2023-08-01T07:12:39;19.17;;;11.07;;
72974;SDS011;61166;54.228;37.632;2023-08-01T07:15:06;19.63;;;10.95;;
72974;SDS011;61166;54.228;37.632;2023-08-01T07:17:32;23.77;;;10.65;;
72974;SDS011;61166;54.228;37.632;2023-08-01T07:19:59;19.95;;;10.48;;
72974;SDS011;61166;54.228;37.632;2023-08-01T07:22:25;19.45;;;10.50;;
72974;SDS011;61166;54.228;37.632;2023-08-01T07:24:52;19.40;;;11.00;;
72974;SDS011;61166;54.228;37.632;2023-08-01T07:27:19;16.88;;;9.90;;
72974;SDS011;61166;54.228;37.632;2023-08-01T07:29:45;19.45;;;10.93;;
72974;SDS011;61166;54.228;37.632;2023-08-01T07:32:12;28.23;;;11.05;;
72974;SDS011;61166;54.228;37.632;2023-08-01T07:34:38;18.35;;;11.70;;
72974;SDS011;61166;54.228;37.632;2023-08-01T07:37:05;25.00;;;12.37;;
72974;SDS011;61166;54.228;37.632;2023-08-01T07:39:32;20.10;;;11.48;;
72974;SDS011;61166;54.228;37.632;2023-08-01T07:41:58;20.50;;;12.13;;
72974;SDS011;61166;54.228;37.632;2023-08-01T07:44:24;21.48;;;10.40;;
72974;SDS011;61166;54.228;37.632;2023-08-01T07:46:51;20.48;;;12.40;;
72974;SDS011;61166;54.228;37.632;2023-08-01T07:49:17;18.00;;;10.40;;
72974;SDS011;61166;54.228;37.632;2023-08-01T07:51:44;16.55;;;10.35;;
72974;SDS011;61166;54.228;37.632;2023-08-01T07:54:10;15.27;;;9.68;;
72974;SDS011;61166;54.228;37.632;2023-08-01T07:56:37;16.70;;;9.63;;
72974;SDS011;61166;54.228;37.632;2023-08-01T07:59:04;17.02;;;9.82;;
72974;SDS011;61166;54.228;37.632;2023-08-01T08:01:31;18.67;;;10.40;;
72974;SDS011;61166;54.228;37.632;2023-08-01T08:03:57;27.05;;;13.57;;
72974;SDS011;61166;54.228;37.632;2023-08-01T08:06:23;19.15;;;11.77;;
72974;SDS011;61166;54.228;37.632;2023-08-01T08:08:50;15.93;;;9.48;;
72974;SDS011;61166;54.228;37.632;2023-08-01T08:11:16;17.48;;;10.30;;
72974;SDS011;61166;54.228;37.632;2023-08-01T08:13:43;22.07;;;13.07;;
72974;SDS011;61166;54.228;37.632;2023-08-01T08:16:09;19.42;;;12.68;;
72974;SDS011;61166;54.228;37.632;2023-08-01T08:18:36;17.88;;;11.00;;
72974;SDS011;61166;54.228;37.632;2023-08-01T08:21:02;21.05;;;13.40;;
72974;SDS011;61166;54.228;37.632;2023-08-01T08:23:29;21.77;;;11.52;;
72974;SDS011;61166;54.228;37.632;2023-08-01T08:25:55;15.50;;;8.80;;
72974;SDS011;61166;54.228;37.632;2023-08-01T08:28:28;18.85;;;11.65;;
72974;SDS011;61166;54.228;37.632;2023-08-01T08:30:55;19.88;;;11.88;;
72974;SDS011;61166;54.228;37.632;2023-08-01T08:33:22;16.83;;;10.43;;
72974;SDS011;61166;54.228;37.632;2023-08-01T08:35:49;16.50;;;11.43;;
72974;SDS011;61166;54.228;37.632;2023-08-01T08:38:16;15.23;;;9.97;;
72974;SDS011;61166;54.228;37.632;2023-08-01T08:40:46;20.88;;;13.13;;
72974;SDS011;61166;54.228;37.632;2023-08-01T08:43:14;19.30;;;12.93;;
72974;SDS011;61166;54.228;37.632;2023-08-01T08:45:42;23.65;;;16.85;;
72974;SDS011;61166;54.228;37.632;2023-08-01T08:48:09;24.25;;;14.27;;
72974;SDS011;61166;54.228;37.632;2023-08-01T08:50:38;19.03;;;10.90;;
72974;SDS011;61166;54.228;37.632;2023-08-01T08:53:05;17.05;;;10.52;;
72974;SDS011;61166;54.228;37.632;2023-08-01T08:55:32;17.35;;;10.20;;
72974;SDS011;61166;54.228;37.632;2023-08-01T08:57:58;16.00;;;9.55;;
72974;SDS011;61166;54.228;37.632;2023-08-01T09:00:25;13.98;;;9.73;;
72974;SDS011;61166;54.228;37.632;2023-08-01T09:02:51;13.50;;;8.57;;
72974;SDS011;61166;54.228;37.632;2023-08-01T09:05:18;20.90;;;13.35;;
72974;SDS011;61166;54.228;37.632;2023-08-01T09:07:45;16.27;;;11.43;;
72974;SDS011;61166;54.228;37.632;2023-08-01T09:10:12;565.30;;;205.40;;
72974;SDS011;61166;54.228;37.632;2023-08-01T09:12:39;687.75;;;248.68;;
72974;SDS011;61166;54.228;37.632;2023-08-01T09:15:05;296.57;;;122.93;;
72974;SDS011;61166;54.228;37.632;2023-08-01T09:17:32;374.00;;;140.50;;
72974;SDS011;61166;54.228;37.632;2023-08-01T09:20:05;398.25;;;147.57;;
72974;SDS011;61166;54.228;37.632;2023-08-01T09:22:42;510.05;;;181.27;;
72974;SDS011;61166;54.228;37.632;2023-08-01T09:25:09;894.00;;;323.90;;
72974;SDS011;61166;54.228;37.632;2023-08-01T09:27:36;755.37;;;270.87;;
72974;SDS011;61166;54.228;37.632;2023-08-01T09:30:06;149.15;;;86.10;;
72974;SDS011;61166;54.228;37.632;2023-08-01T09:32:33;117.53;;;75.28;;
72974;SDS011;61166;54.228;37.632;2023-08-01T09:34:59;176.57;;;94.95;;
72974;SDS011;61166;54.228;37.632;2023-08-01T09:37:26;195.30;;;100.32;;
72974;SDS011;61166;54.228;37.632;2023-08-01T09:39:53;149.33;;;87.90;;
72974;SDS011;61166;54.228;37.632;2023-08-01T09:42:20;144.48;;;85.97;;
72974;SDS011;61166;54.228;37.632;2023-08-01T09:44:46;117.63;;;75.70;;
72974;SDS011;61166;54.228;37.632;2023-08-01T09:47:13;180.65;;;97.45;;
72974;SDS011;61166;54.228;37.632;2023-08-01T09:49:47;159.63;;;91.90;;
72974;SDS011;61166;54.228;37.632;2023-08-01T09:52:13;221.60;;;108.63;;
72974;SDS011;61166;54.228;37.632;2023-08-01T09:54:41;199.85;;;103.78;;
72974;SDS011;61166;54.228;37.632;2023-08-01T09:57:07;149.57;;;88.75;;
72974;SDS011;61166;54.228;37.632;2023-08-01T09:59:34;103.43;;;72.18;;
72974;SDS011;61166;54.228;37.632;2023-08-01T10:02:00;106.13;;;74.75;;
72974;SDS011;61166;54.228;37.632;2023-08-01T10:04:28;58.07;;;49.70;;
72974;SDS011;61166;54.228;37.632;2023-08-01T10:06:59;43.05;;;34.33;;
72974;SDS011;61166;54.228;37.632;2023-08-01T10:09:25;33.95;;;23.45;;
72974;SDS011;61166;54.228;37.632;2023-08-01T10:11:53;37.50;;;24.15;;
72974;SDS011;61166;54.228;37.632;2023-08-01T10:14:23;24.55;;;14.35;;
72974;SDS011;61166;54.228;37.632;2023-08-01T10:16:50;30.53;;;17.97;;
72974;SDS011;61166;54.228;37.632;2023-08-01T10:19:17;29.58;;;18.10;;
72974;SDS011;61166;54.228;37.632;2023-08-01T10:21:46;36.17;;;23.10;;
72974;SDS011;61166;54.228;37.632;2023-08-01T10:24:13;40.90;;;30.55;;
72974;SDS011;61166;54.228;37.632;2023-08-01T10:26:41;48.90;;;38.92;;
72974;SDS011;61166;54.228;37.632;2023-08-01T10:29:11;43.93;;;30.03;;
72974;SDS011;61166;54.228;37.632;2023-08-01T10:31:37;39.10;;;32.42;;
72974;SDS011;61166;54.228;37.632;2023-08-01T10:34:05;44.72;;;34.55;;
72974;SDS011;61166;54.228;37.632;2023-08-01T10:36:33;44.03;;;34.03;;
72974;SDS011;61166;54.228;37.632;2023-08-01T10:39:01;46.72;;;40.10;;
72974;SDS011;61166;54.228;37.632;2023-08-01T10:44:04;49.03;;;41.15;;
72974;SDS011;61166;54.228;37.632;2023-08-01T10:46:51;57.47;;;49.13;;
72974;SDS011;61166;54.228;37.632;2023-08-01T10:49:19;60.22;;;50.92;;
72974;SDS011;61166;54.228;37.632;2023-08-01T10:51:47;60.40;;;52.83;;
72974;SDS011;61166;54.228;37.632;2023-08-01T10:54:24;56.40;;;49.03;;
72974;SDS011;61166;54.228;37.632;2023-08-01T10:56:52;64.55;;;53.45;;
72974;SDS011;61166;54.228;37.632;2023-08-01T10:59:23;69.50;;;55.55;;
72974;SDS011;61166;54.228;37.632;2023-08-01T11:01:51;72.10;;;54.95;;
72974;SDS011;61166;54.228;37.632;2023-08-01T11:04:24;71.88;;;55.47;;
72974;SDS011;61166;54.228;37.632;2023-08-01T11:06:51;69.30;;;55.73;;
72974;SDS011;61166;54.228;37.632;2023-08-01T11:09:23;69.40;;;56.33;;
72974;SDS011;61166;54.228;37.632;2023-08-01T11:11:52;69.72;;;54.65;;
72974;SDS011;61166;54.228;37.632;2023-08-01T11:14:20;55.30;;;47.75;;
72974;SDS011;61166;54.228;37.632;2023-08-01T11:16:49;49.13;;;41.17;;
72974;SDS011;61166;54.228;37.632;2023-08-01T11:19:23;37.77;;;27.00;;
72974;SDS011;61166;54.228;37.632;2023-08-01T11:21:54;30.08;;;21.75;;
72974;SDS011;61166;54.228;37.632;2023-08-01T11:24:22;28.10;;;21.33;;
72974;SDS011;61166;54.228;37.632;2023-08-01T11:26:51;36.92;;;32.83;;
72974;SDS011;61166;54.228;37.632;2023-08-01T11:29:20;40.15;;;31.70;;
72974;SDS011;61166;54.228;37.632;2023-08-01T11:34:19;21.98;;;13.40;;
72974;SDS011;61166;54.228;37.632;2023-08-01T11:36:46;220.15;;;103.97;;
72974;SDS011;61166;54.228;37.632;2023-08-01T11:39:13;28.27;;;15.68;;
72974;SDS011;61166;54.228;37.632;2023-08-01T11:41:41;201.13;;;98.80;;
72974;SDS011;61166;54.228;37.632;2023-08-01T11:44:09;360.43;;;138.57;;
72974;SDS011;61166;54.228;37.632;2023-08-01T11:46:36;433.52;;;161.13;;
72974;SDS011;61166;54.228;37.632;2023-08-01T11:49:04;518.08;;;185.23;;
72974;SDS011;61166;54.228;37.632;2023-08-01T11:51:30;704.13;;;253.05;;
72974;SDS011;61166;54.228;37.632;2023-08-01T11:54:05;837.08;;;303.02;;
72974;SDS011;61166;54.228;37.632;2023-08-01T11:56:32;1018.30;;;369.77;;
72974;SDS011;61166;54.228;37.632;2023-08-01T11:58:59;955.35;;;348.52;;
72974;SDS011;61166;54.228;37.632;2023-08-01T12:01:37;649.53;;;234.82;;
72974;SDS011;61166;54.228;37.632;2023-08-01T12:04:07;902.90;;;325.02;;
72974;SDS011;61166;54.228;37.632;2023-08-01T12:06:34;679.85;;;244.40;;
72974;SDS011;61166;54.228;37.632;2023-08-01T12:09:11;520.17;;;182.20;;
72974;SDS011;61166;54.228;37.632;2023-08-01T12:11:39;782.05;;;284.10;;
72974;SDS011;61166;54.228;37.632;2023-08-01T12:16:55;977.63;;;373.42;;
72974;SDS011;61166;54.228;37.632;2023-08-01T12:19:22;239.07;;;107.72;;
72974;SDS011;61166;54.228;37.632;2023-08-01T12:21:49;137.53;;;62.17;;
72974;SDS011;61166;54.228;37.632;2023-08-01T12:24:15;19.20;;;12.52;;
72974;SDS011;61166;54.228;37.632;2023-08-01T12:26:42;26.58;;;17.20;;
72974;SDS011;61166;54.228;37.632;2023-08-01T12:29:09;19.52;;;12.20;;
72974;SDS011;61166;54.228;37.632;2023-08-01T12:31:36;17.05;;;11.50;;
72974;SDS011;61166;54.228;37.632;2023-08-01T12:34:02;17.67;;;11.63;;
72974;SDS011;61166;54.228;37.632;2023-08-01T12:36:29;17.95;;;11.45;;
72974;SDS011;61166;54.228;37.632;2023-08-01T12:38:56;19.55;;;11.85;;
72974;SDS011;61166;54.228;37.632;2023-08-01T12:41:22;16.52;;;10.40;;
72974;SDS011;61166;54.228;37.632;2023-08-01T12:43:49;18.58;;;11.73;;
72974;SDS011;61166;54.228;37.632;2023-08-01T12:46:16;14.20;;;9.70;;
72974;SDS011;61166;54.228;37.632;2023-08-01T12:48:43;10.68;;;8.50;;
72974;SDS011;61166;54.228;37.632;2023-08-01T12:51:09;13.98;;;9.15;;
72974;SDS011;61166;54.228;37.632;2023-08-01T12:53:36;11.25;;;8.35;;
72974;SDS011;61166;54.228;37.632;2023-08-01T12:56:02;13.88;;;9.02;;
72974;SDS011;61166;54.228;37.632;2023-08-01T12:58:29;13.67;;;9.20;;
72974;SDS011;61166;54.228;37.632;2023-08-01T13:00:55;11.32;;;7.78;;
72974;SDS011;61166;54.228;37.632;2023-08-01T13:03:22;13.95;;;8.57;;
72974;SDS011;61166;54.228;37.632;2023-08-01T13:05:48;14.73;;;9.35;;
72974;SDS011;61166;54.228;37.632;2023-08-01T13:08:15;14.75;;;9.77;;
72974;SDS011;61166;54.228;37.632;2023-08-01T13:10:41;18.40;;;12.37;;
72974;SDS011;61166;54.228;37.632;2023-08-01T13:13:08;28.45;;;17.65;;
72974;SDS011;61166;54.228;37.632;2023-08-01T13:15:34;26.35;;;15.30;;
72974;SDS011;61166;54.228;37.632;2023-08-01T13:18:00;22.15;;;13.50;;
72974;SDS011;61166;54.228;37.632;2023-08-01T13:20:27;16.92;;;11.35;;
72974;SDS011;61166;54.228;37.632;2023-08-01T13:22:56;28.37;;;18.20;;
72974;SDS011;61166;54.228;37.632;2023-08-01T13:25:23;75.30;;;54.60;;
72974;SDS011;61166;54.228;37.632;2023-08-01T13:27:50;63.75;;;46.67;;
72974;SDS011;61166;54.228;37.632;2023-08-01T13:30:17;314.63;;;126.72;;
72974;SDS011;61166;54.228;37.632;2023-08-01T13:32:44;412.40;;;157.63;;
72974;SDS011;61166;54.228;37.632;2023-08-01T13:35:11;520.43;;;185.07;;
72974;SDS011;61166;54.228;37.632;2023-08-01T13:37:37;534.40;;;191.15;;
72974;SDS011;61166;54.228;37.632;2023-08-01T13:40:04;563.55;;;202.00;;
72974;SDS011;61166;54.228;37.632;2023-08-01T13:42:31;586.08;;;210.70;;
72974;SDS011;61166;54.228;37.632;2023-08-01T13:44:58;350.65;;;132.63;;
72974;SDS011;61166;54.228;37.632;2023-08-01T13:47:26;400.13;;;152.93;;
72974;SDS011;61166;54.228;37.632;2023-08-01T13:49:52;213.27;;;102.50;;
72974;SDS011;61166;54.228;37.632;2023-08-01T13:52:19;192.15;;;97.30;;
72974;SDS011;61166;54.228;37.632;2023-08-01T13:54:45;228.75;;;106.38;;
72974;SDS011;61166;54.228;37.632;2023-08-01T13:57:11;212.80;;;102.45;;
72974;SDS011;61166;54.228;37.632;2023-08-01T13:59:38;237.43;;;108.13;;
72974;SDS011;61166;54.228;37.632;2023-08-01T14:02:05;198.73;;;98.45;;
72974;SDS011;61166;54.228;37.632;2023-08-01T14:04:35;22.38;;;13.52;;
72974;SDS011;61166;54.228;37.632;2023-08-01T14:07:02;14.20;;;9.35;;
72974;SDS011;61166;54.228;37.632;2023-08-01T14:09:28;16.50;;;10.68;;
72974;SDS011;61166;54.228;37.632;2023-08-01T14:11:55;21.80;;;13.20;;
72974;SDS011;61166;54.228;37.632;2023-08-01T14:14:21;53.00;;;40.35;;
72974;SDS011;61166;54.228;37.632;2023-08-01T14:16:48;421.35;;;155.90;;